sensor_id;sensor_type;location;lat;lon;timestamp;temperature;humidity
11264;DHT22;5689;48.798;9.070;2024-02-26T00:01:42;7.10;96.30
11264;DHT22;5689;48.798;9.070;2024-02-26T00:04:12;7.00;96.20
11264;DHT22;5689;48.798;9.070;2024-02-26T00:06:40;7.20;95.70
11264;DHT22;5689;48.798;9.070;2024-02-26T00:09:10;7.50;95.00
11264;DHT22;5689;48.798;9.070;2024-02-26T00:11:38;7.70;94.80
11264;DHT22;5689;48.798;9.070;2024-02-26T00:14:06;7.70;94.10
11264;DHT22;5689;48.798;9.070;2024-02-26T00:16:35;7.80;94.10
11264;DHT22;5689;48.798;9.070;2024-02-26T00:19:03;7.80;94.20
11264;DHT22;5689;48.798;9.070;2024-02-26T00:21:31;7.70;94.20
11264;DHT22;5689;48.798;9.070;2024-02-26T00:23:59;7.80;94.10
11264;DHT22;5689;48.798;9.070;2024-02-26T00:26:29;7.90;93.80
11264;DHT22;5689;48.798;9.070;2024-02-26T00:28:57;7.90;93.40
11264;DHT22;5689;48.798;9.070;2024-02-26T00:31:25;8.10;93.40
11264;DHT22;5689;48.798;9.070;2024-02-26T00:33:54;8.20;93.10
11264;DHT22;5689;48.798;9.070;2024-02-26T00:36:22;8.10;93.00
11264;DHT22;5689;48.798;9.070;2024-02-26T00:38:50;8.10;93.10
11264;DHT22;5689;48.798;9.070;2024-02-26T00:41:18;8.20;92.70
11264;DHT22;5689;48.798;9.070;2024-02-26T00:43:48;8.10;92.70
11264;DHT22;5689;48.798;9.070;2024-02-26T00:46:16;8.10;93.30
11264;DHT22;5689;48.798;9.070;2024-02-26T00:48:45;8.20;93.30
11264;DHT22;5689;48.798;9.070;2024-02-26T00:51:13;8.10;93.60
11264;DHT22;5689;48.798;9.070;2024-02-26T00:53:42;8.10;93.90
11264;DHT22;5689;48.798;9.070;2024-02-26T00:56:10;8.40;93.90
11264;DHT22;5689;48.798;9.070;2024-02-26T00:58:38;8.20;93.90
11264;DHT22;5689;48.798;9.070;2024-02-26T01:01:08;7.80;95.00
11264;DHT22;5689;48.798;9.070;2024-02-26T01:03:36;7.60;95.40
11264;DHT22;5689;48.798;9.070;2024-02-26T01:06:04;7.70;95.50
11264;DHT22;5689;48.798;9.070;2024-02-26T01:08:32;7.80;94.70
11264;DHT22;5689;48.798;9.070;2024-02-26T01:11:02;7.70;93.60
11264;DHT22;5689;48.798;9.070;2024-02-26T01:13:31;7.90;92.50
11264;DHT22;5689;48.798;9.070;2024-02-26T01:15:59;7.70;94.10
11264;DHT22;5689;48.798;9.070;2024-02-26T01:18:28;7.70;94.80
11264;DHT22;5689;48.798;9.070;2024-02-26T01:20:57;7.60;95.50
11264;DHT22;5689;48.798;9.070;2024-02-26T01:23:25;7.60;96.00
11264;DHT22;5689;48.798;9.070;2024-02-26T01:25:53;7.50;96.10
11264;DHT22;5689;48.798;9.070;2024-02-26T01:28:23;7.50;96.50
11264;DHT22;5689;48.798;9.070;2024-02-26T01:30:51;7.40;96.30
11264;DHT22;5689;48.798;9.070;2024-02-26T01:33:19;7.20;96.90
11264;DHT22;5689;48.798;9.070;2024-02-26T01:35:48;7.20;97.20
11264;DHT22;5689;48.798;9.070;2024-02-26T01:38:16;7.40;97.20
11264;DHT22;5689;48.798;9.070;2024-02-26T01:40:45;7.40;96.90
11264;DHT22;5689;48.798;9.070;2024-02-26T01:43:13;7.40;96.90
11264;DHT22;5689;48.798;9.070;2024-02-26T01:45:41;7.30;97.00
11264;DHT22;5689;48.798;9.070;2024-02-26T01:48:09;7.30;97.40
11264;DHT22;5689;48.798;9.070;2024-02-26T01:50:40;7.30;97.00
11264;DHT22;5689;48.798;9.070;2024-02-26T01:53:10;7.40;96.90
11264;DHT22;5689;48.798;9.070;2024-02-26T01:55:39;7.40;96.40
11264;DHT22;5689;48.798;9.070;2024-02-26T01:58:07;7.40;96.20
11264;DHT22;5689;48.798;9.070;2024-02-26T02:00:36;7.40;96.10
11264;DHT22;5689;48.798;9.070;2024-02-26T02:03:05;7.50;96.50
11264;DHT22;5689;48.798;9.070;2024-02-26T02:05:34;7.30;96.80
11264;DHT22;5689;48.798;9.070;2024-02-26T02:08:10;7.40;97.00
11264;DHT22;5689;48.798;9.070;2024-02-26T02:10:39;7.40;97.20
11264;DHT22;5689;48.798;9.070;2024-02-26T02:13:09;7.30;97.30
11264;DHT22;5689;48.798;9.070;2024-02-26T02:15:37;7.40;97.80
11264;DHT22;5689;48.798;9.070;2024-02-26T02:18:06;7.20;97.70
11264;DHT22;5689;48.798;9.070;2024-02-26T02:20:36;7.10;98.10
11264;DHT22;5689;48.798;9.070;2024-02-26T02:23:04;7.20;98.20
11264;DHT22;5689;48.798;9.070;2024-02-26T02:25:32;7.30;98.30
11264;DHT22;5689;48.798;9.070;2024-02-26T02:28:01;7.20;98.10
11264;DHT22;5689;48.798;9.070;2024-02-26T02:30:30;7.30;98.20
11264;DHT22;5689;48.798;9.070;2024-02-26T02:33:00;7.40;98.40
11264;DHT22;5689;48.798;9.070;2024-02-26T02:35:28;7.30;98.80
11264;DHT22;5689;48.798;9.070;2024-02-26T02:37:58;7.40;96.50
11264;DHT22;5689;48.798;9.070;2024-02-26T02:40:26;7.40;97.10
11264;DHT22;5689;48.798;9.070;2024-02-26T02:42:54;7.50;97.20
11264;DHT22;5689;48.798;9.070;2024-02-26T02:45:22;7.60;97.20
11264;DHT22;5689;48.798;9.070;2024-02-26T02:47:50;7.50;97.30
11264;DHT22;5689;48.798;9.070;2024-02-26T02:50:18;7.30;98.50
11264;DHT22;5689;48.798;9.070;2024-02-26T02:52:47;7.40;98.90
11264;DHT22;5689;48.798;9.070;2024-02-26T02:55:18;7.40;99.30
11264;DHT22;5689;48.798;9.070;2024-02-26T02:57:46;7.40;99.50
11264;DHT22;5689;48.798;9.070;2024-02-26T03:00:15;7.50;99.90
11264;DHT22;5689;48.798;9.070;2024-02-26T03:02:43;7.60;99.90
11264;DHT22;5689;48.798;9.070;2024-02-26T03:05:12;7.70;99.60
11264;DHT22;5689;48.798;9.070;2024-02-26T03:07:40;7.70;98.70
11264;DHT22;5689;48.798;9.070;2024-02-26T03:10:09;7.80;98.60
11264;DHT22;5689;48.798;9.070;2024-02-26T03:12:39;7.90;97.40
11264;DHT22;5689;48.798;9.070;2024-02-26T03:15:07;8.00;98.20
11264;DHT22;5689;48.798;9.070;2024-02-26T03:17:35;7.90;98.30
11264;DHT22;5689;48.798;9.070;2024-02-26T03:20:05;7.90;99.60
11264;DHT22;5689;48.798;9.070;2024-02-26T03:22:35;7.80;99.90
11264;DHT22;5689;48.798;9.070;2024-02-26T03:25:04;7.70;99.90
11264;DHT22;5689;48.798;9.070;2024-02-26T03:27:32;7.60;99.90
11264;DHT22;5689;48.798;9.070;2024-02-26T03:30:02;7.60;99.90
11264;DHT22;5689;48.798;9.070;2024-02-26T03:32:31;7.50;99.90
11264;DHT22;5689;48.798;9.070;2024-02-26T03:34:59;7.50;99.90
11264;DHT22;5689;48.798;9.070;2024-02-26T03:37:27;7.40;99.90
11264;DHT22;5689;48.798;9.070;2024-02-26T03:39:56;7.60;99.90
11264;DHT22;5689;48.798;9.070;2024-02-26T03:42:24;7.60;99.90
11264;DHT22;5689;48.798;9.070;2024-02-26T03:44:53;7.60;99.90
11264;DHT22;5689;48.798;9.070;2024-02-26T03:47:22;7.70;99.90
11264;DHT22;5689;48.798;9.070;2024-02-26T03:49:50;7.80;99.90
11264;DHT22;5689;48.798;9.070;2024-02-26T03:52:18;7.70;99.90
11264;DHT22;5689;48.798;9.070;2024-02-26T03:54:47;7.70;99.90
11264;DHT22;5689;48.798;9.070;2024-02-26T03:57:15;7.60;99.90
11264;DHT22;5689;48.798;9.070;2024-02-26T03:59:43;7.60;99.90
11264;DHT22;5689;48.798;9.070;2024-02-26T04:02:11;7.60;99.90
11264;DHT22;5689;48.798;9.070;2024-02-26T04:05:12;7.60;99.90
11264;DHT22;5689;48.798;9.070;2024-02-26T04:07:41;7.60;99.90
11264;DHT22;5689;48.798;9.070;2024-02-26T04:10:10;7.40;99.90
11264;DHT22;5689;48.798;9.070;2024-02-26T04:12:39;7.40;99.90
11264;DHT22;5689;48.798;9.070;2024-02-26T04:15:09;7.40;99.90
11264;DHT22;5689;48.798;9.070;2024-02-26T04:17:37;7.40;99.90
11264;DHT22;5689;48.798;9.070;2024-02-26T04:20:07;7.50;99.90
11264;DHT22;5689;48.798;9.070;2024-02-26T04:22:38;7.40;99.90
11264;DHT22;5689;48.798;9.070;2024-02-26T04:25:06;7.40;99.90
11264;DHT22;5689;48.798;9.070;2024-02-26T04:27:34;7.40;99.90
11264;DHT22;5689;48.798;9.070;2024-02-26T04:30:03;7.50;99.90
11264;DHT22;5689;48.798;9.070;2024-02-26T04:32:32;7.50;99.90
11264;DHT22;5689;48.798;9.070;2024-02-26T04:35:02;7.60;99.90
11264;DHT22;5689;48.798;9.070;2024-02-26T04:37:30;7.60;99.90
11264;DHT22;5689;48.798;9.070;2024-02-26T04:40:00;7.70;99.90
11264;DHT22;5689;48.798;9.070;2024-02-26T04:42:29;7.70;99.90
11264;DHT22;5689;48.798;9.070;2024-02-26T04:44:57;7.80;98.70
11264;DHT22;5689;48.798;9.070;2024-02-26T04:47:25;7.80;98.40
11264;DHT22;5689;48.798;9.070;2024-02-26T04:49:53;7.70;98.90
11264;DHT22;5689;48.798;9.070;2024-02-26T04:52:22;7.70;98.70
11264;DHT22;5689;48.798;9.070;2024-02-26T04:54:50;7.80;98.40
11264;DHT22;5689;48.798;9.070;2024-02-26T04:57:20;7.60;98.40
11264;DHT22;5689;48.798;9.070;2024-02-26T04:59:48;7.60;98.40
11264;DHT22;5689;48.798;9.070;2024-02-26T05:02:16;7.60;98.70
11264;DHT22;5689;48.798;9.070;2024-02-26T05:04:44;7.70;98.60
11264;DHT22;5689;48.798;9.070;2024-02-26T05:07:13;7.60;98.10
11264;DHT22;5689;48.798;9.070;2024-02-26T05:09:41;7.60;98.80
11264;DHT22;5689;48.798;9.070;2024-02-26T05:12:10;7.70;98.40
11264;DHT22;5689;48.798;9.070;2024-02-26T05:14:40;7.70;98.90
11264;DHT22;5689;48.798;9.070;2024-02-26T05:17:08;7.60;98.30
11264;DHT22;5689;48.798;9.070;2024-02-26T05:19:36;7.70;97.80
11264;DHT22;5689;48.798;9.070;2024-02-26T05:22:04;7.80;97.60
11264;DHT22;5689;48.798;9.070;2024-02-26T05:24:33;7.80;97.70
11264;DHT22;5689;48.798;9.070;2024-02-26T05:27:01;7.70;97.70
11264;DHT22;5689;48.798;9.070;2024-02-26T05:29:29;7.70;97.90
11264;DHT22;5689;48.798;9.070;2024-02-26T05:31:58;7.60;97.80
11264;DHT22;5689;48.798;9.070;2024-02-26T05:34:26;7.50;98.10
11264;DHT22;5689;48.798;9.070;2024-02-26T05:36:57;7.40;98.40
11264;DHT22;5689;48.798;9.070;2024-02-26T05:39:25;7.30;98.70
11264;DHT22;5689;48.798;9.070;2024-02-26T05:41:53;7.30;99.00
11264;DHT22;5689;48.798;9.070;2024-02-26T05:44:22;7.30;99.30
11264;DHT22;5689;48.798;9.070;2024-02-26T05:46:50;7.20;99.90
11264;DHT22;5689;48.798;9.070;2024-02-26T05:49:20;7.00;99.90
11264;DHT22;5689;48.798;9.070;2024-02-26T05:51:49;6.90;99.90
11264;DHT22;5689;48.798;9.070;2024-02-26T05:54:17;6.90;99.90
11264;DHT22;5689;48.798;9.070;2024-02-26T05:56:45;6.90;99.90
11264;DHT22;5689;48.798;9.070;2024-02-26T05:59:13;6.90;99.90
11264;DHT22;5689;48.798;9.070;2024-02-26T06:01:42;6.90;99.90
11264;DHT22;5689;48.798;9.070;2024-02-26T06:04:10;6.70;99.90
11264;DHT22;5689;48.798;9.070;2024-02-26T06:06:40;6.70;99.90
11264;DHT22;5689;48.798;9.070;2024-02-26T06:09:09;6.60;99.90
11264;DHT22;5689;48.798;9.070;2024-02-26T06:11:38;6.60;99.90
11264;DHT22;5689;48.798;9.070;2024-02-26T06:14:06;6.50;99.90
11264;DHT22;5689;48.798;9.070;2024-02-26T06:16:34;6.40;99.90
11264;DHT22;5689;48.798;9.070;2024-02-26T06:19:02;6.30;99.90
11264;DHT22;5689;48.798;9.070;2024-02-26T06:21:31;6.20;99.90
11264;DHT22;5689;48.798;9.070;2024-02-26T06:24:00;6.20;99.90
11264;DHT22;5689;48.798;9.070;2024-02-26T06:26:28;6.10;99.90
11264;DHT22;5689;48.798;9.070;2024-02-26T06:28:57;6.00;99.90
11264;DHT22;5689;48.798;9.070;2024-02-26T06:31:25;6.10;99.90
11264;DHT22;5689;48.798;9.070;2024-02-26T06:33:54;6.10;99.90
11264;DHT22;5689;48.798;9.070;2024-02-26T06:36:23;6.20;99.90
11264;DHT22;5689;48.798;9.070;2024-02-26T06:38:51;6.20;99.90
11264;DHT22;5689;48.798;9.070;2024-02-26T06:41:22;6.30;99.90
11264;DHT22;5689;48.798;9.070;2024-02-26T06:43:54;6.20;99.90
11264;DHT22;5689;48.798;9.070;2024-02-26T06:46:22;6.40;99.90
11264;DHT22;5689;48.798;9.070;2024-02-26T06:48:51;6.50;99.90
11264;DHT22;5689;48.798;9.070;2024-02-26T06:51:21;6.60;99.90
11264;DHT22;5689;48.798;9.070;2024-02-26T06:53:49;6.60;99.90
11264;DHT22;5689;48.798;9.070;2024-02-26T06:56:17;6.80;99.90
11264;DHT22;5689;48.798;9.070;2024-02-26T06:58:48;7.00;99.90
11264;DHT22;5689;48.798;9.070;2024-02-26T07:01:17;6.90;99.90
11264;DHT22;5689;48.798;9.070;2024-02-26T07:03:45;7.00;99.90
11264;DHT22;5689;48.798;9.070;2024-02-26T07:06:14;7.10;99.90
11264;DHT22;5689;48.798;9.070;2024-02-26T07:08:42;7.10;99.90
11264;DHT22;5689;48.798;9.070;2024-02-26T07:11:10;7.10;99.90
11264;DHT22;5689;48.798;9.070;2024-02-26T07:13:38;7.30;99.90
11264;DHT22;5689;48.798;9.070;2024-02-26T07:16:09;7.50;99.90
11264;DHT22;5689;48.798;9.070;2024-02-26T07:18:39;7.50;99.90
11264;DHT22;5689;48.798;9.070;2024-02-26T07:21:07;7.80;99.90
11264;DHT22;5689;48.798;9.070;2024-02-26T07:23:35;8.00;99.90
11264;DHT22;5689;48.798;9.070;2024-02-26T07:26:03;8.00;99.90
11264;DHT22;5689;48.798;9.070;2024-02-26T07:28:32;7.80;99.90
11264;DHT22;5689;48.798;9.070;2024-02-26T07:31:01;7.80;99.90
11264;DHT22;5689;48.798;9.070;2024-02-26T07:33:31;7.80;99.90
11264;DHT22;5689;48.798;9.070;2024-02-26T07:36:00;8.10;99.90
11264;DHT22;5689;48.798;9.070;2024-02-26T07:38:29;8.20;99.90
11264;DHT22;5689;48.798;9.070;2024-02-26T07:40:58;8.20;99.90
11264;DHT22;5689;48.798;9.070;2024-02-26T07:43:28;8.40;99.90
11264;DHT22;5689;48.798;9.070;2024-02-26T07:45:57;8.40;99.90
11264;DHT22;5689;48.798;9.070;2024-02-26T07:48:25;8.10;99.90
11264;DHT22;5689;48.798;9.070;2024-02-26T07:50:55;8.10;99.90
11264;DHT22;5689;48.798;9.070;2024-02-26T07:53:24;8.10;99.90
11264;DHT22;5689;48.798;9.070;2024-02-26T07:55:52;8.00;99.90
11264;DHT22;5689;48.798;9.070;2024-02-26T07:58:21;8.10;99.90
11264;DHT22;5689;48.798;9.070;2024-02-26T08:00:49;8.20;99.90
11264;DHT22;5689;48.798;9.070;2024-02-26T08:03:18;8.30;99.90
11264;DHT22;5689;48.798;9.070;2024-02-26T08:05:46;8.40;99.90
11264;DHT22;5689;48.798;9.070;2024-02-26T08:08:16;8.50;99.90
11264;DHT22;5689;48.798;9.070;2024-02-26T08:10:44;8.50;99.90
11264;DHT22;5689;48.798;9.070;2024-02-26T08:13:12;8.50;99.90
11264;DHT22;5689;48.798;9.070;2024-02-26T08:15:41;8.50;99.90
11264;DHT22;5689;48.798;9.070;2024-02-26T08:18:09;8.60;99.90
11264;DHT22;5689;48.798;9.070;2024-02-26T08:20:37;8.60;99.90
11264;DHT22;5689;48.798;9.070;2024-02-26T08:23:06;8.80;99.90
11264;DHT22;5689;48.798;9.070;2024-02-26T08:25:36;9.00;99.90
11264;DHT22;5689;48.798;9.070;2024-02-26T08:28:04;9.10;99.90
11264;DHT22;5689;48.798;9.070;2024-02-26T08:30:32;9.30;99.90
11264;DHT22;5689;48.798;9.070;2024-02-26T08:33:01;9.10;99.90
11264;DHT22;5689;48.798;9.070;2024-02-26T08:35:29;8.90;99.90
11264;DHT22;5689;48.798;9.070;2024-02-26T08:37:57;8.80;99.90
11264;DHT22;5689;48.798;9.070;2024-02-26T08:40:26;9.00;99.90
11264;DHT22;5689;48.798;9.070;2024-02-26T08:42:55;9.40;99.90
11264;DHT22;5689;48.798;9.070;2024-02-26T08:45:25;9.50;99.90
11264;DHT22;5689;48.798;9.070;2024-02-26T08:47:56;9.40;99.90
11264;DHT22;5689;48.798;9.070;2024-02-26T08:50:25;9.60;99.90
11264;DHT22;5689;48.798;9.070;2024-02-26T08:52:53;9.80;99.90
11264;DHT22;5689;48.798;9.070;2024-02-26T08:55:21;9.90;99.90
11264;DHT22;5689;48.798;9.070;2024-02-26T08:57:50;9.80;99.90
11264;DHT22;5689;48.798;9.070;2024-02-26T09:00:19;9.60;99.90
11264;DHT22;5689;48.798;9.070;2024-02-26T09:02:48;10.00;99.90
11264;DHT22;5689;48.798;9.070;2024-02-26T09:05:16;10.00;99.90
11264;DHT22;5689;48.798;9.070;2024-02-26T09:07:45;10.00;99.90
11264;DHT22;5689;48.798;9.070;2024-02-26T09:10:14;10.00;99.90
11264;DHT22;5689;48.798;9.070;2024-02-26T09:12:42;9.90;99.90
11264;DHT22;5689;48.798;9.070;2024-02-26T09:15:10;9.90;99.90
11264;DHT22;5689;48.798;9.070;2024-02-26T09:17:41;9.70;99.90
11264;DHT22;5689;48.798;9.070;2024-02-26T09:20:09;9.60;99.90
11264;DHT22;5689;48.798;9.070;2024-02-26T09:22:37;9.80;99.90
11264;DHT22;5689;48.798;9.070;2024-02-26T09:25:06;10.00;99.90
11264;DHT22;5689;48.798;9.070;2024-02-26T09:27:35;10.20;99.90
11264;DHT22;5689;48.798;9.070;2024-02-26T09:30:05;10.00;99.90
11264;DHT22;5689;48.798;9.070;2024-02-26T09:32:33;10.00;99.90
11264;DHT22;5689;48.798;9.070;2024-02-26T09:35:03;9.60;99.90
11264;DHT22;5689;48.798;9.070;2024-02-26T09:37:31;9.60;99.90
11264;DHT22;5689;48.798;9.070;2024-02-26T09:40:00;9.90;99.90
11264;DHT22;5689;48.798;9.070;2024-02-26T09:42:32;10.00;99.90
11264;DHT22;5689;48.798;9.070;2024-02-26T09:45:00;10.10;99.90
11264;DHT22;5689;48.798;9.070;2024-02-26T09:47:35;10.30;99.90
11264;DHT22;5689;48.798;9.070;2024-02-26T09:50:07;10.50;99.90
11264;DHT22;5689;48.798;9.070;2024-02-26T09:52:40;11.00;99.90
11264;DHT22;5689;48.798;9.070;2024-02-26T09:55:09;11.50;99.90
11264;DHT22;5689;48.798;9.070;2024-02-26T09:57:37;11.70;99.90
11264;DHT22;5689;48.798;9.070;2024-02-26T10:00:09;11.60;99.90
11264;DHT22;5689;48.798;9.070;2024-02-26T10:02:39;12.30;99.90
11264;DHT22;5689;48.798;9.070;2024-02-26T10:05:10;13.10;98.60
11264;DHT22;5689;48.798;9.070;2024-02-26T10:07:42;12.90;95.90
11264;DHT22;5689;48.798;9.070;2024-02-26T10:10:10;13.00;97.10
11264;DHT22;5689;48.798;9.070;2024-02-26T10:12:39;12.70;96.10
11264;DHT22;5689;48.798;9.070;2024-02-26T10:15:08;13.40;96.20
11264;DHT22;5689;48.798;9.070;2024-02-26T10:17:36;13.90;93.80
11264;DHT22;5689;48.798;9.070;2024-02-26T10:20:15;13.40;92.40
11264;DHT22;5689;48.798;9.070;2024-02-26T10:22:44;13.60;94.60
11264;DHT22;5689;48.798;9.070;2024-02-26T10:25:13;14.00;93.80
11264;DHT22;5689;48.798;9.070;2024-02-26T10:27:41;14.20;93.40
11264;DHT22;5689;48.798;9.070;2024-02-26T10:30:19;14.20;93.30
11264;DHT22;5689;48.798;9.070;2024-02-26T10:32:49;13.30;94.10
11264;DHT22;5689;48.798;9.070;2024-02-26T10:35:19;14.30;93.70
11264;DHT22;5689;48.798;9.070;2024-02-26T10:37:49;14.90;92.20
11264;DHT22;5689;48.798;9.070;2024-02-26T10:40:17;15.00;92.10
11264;DHT22;5689;48.798;9.070;2024-02-26T10:42:45;15.40;91.30
11264;DHT22;5689;48.798;9.070;2024-02-26T10:45:14;16.20;90.20
11264;DHT22;5689;48.798;9.070;2024-02-26T10:47:42;15.40;90.20
11264;DHT22;5689;48.798;9.070;2024-02-26T10:50:13;16.00;86.90
11264;DHT22;5689;48.798;9.070;2024-02-26T10:52:43;15.50;88.50
11264;DHT22;5689;48.798;9.070;2024-02-26T10:55:15;14.70;83.50
11264;DHT22;5689;48.798;9.070;2024-02-26T10:57:45;15.50;87.70
11264;DHT22;5689;48.798;9.070;2024-02-26T11:00:15;16.40;83.40
11264;DHT22;5689;48.798;9.070;2024-02-26T11:02:45;16.20;86.20
11264;DHT22;5689;48.798;9.070;2024-02-26T11:05:14;17.10;86.10
11264;DHT22;5689;48.798;9.070;2024-02-26T11:07:44;18.40;84.30
11264;DHT22;5689;48.798;9.070;2024-02-26T11:10:15;17.40;83.40
11264;DHT22;5689;48.798;9.070;2024-02-26T11:12:46;18.50;80.70
11264;DHT22;5689;48.798;9.070;2024-02-26T11:15:15;19.70;77.10
11264;DHT22;5689;48.798;9.070;2024-02-26T11:17:46;20.40;76.10
11264;DHT22;5689;48.798;9.070;2024-02-26T11:20:14;20.20;72.00
11264;DHT22;5689;48.798;9.070;2024-02-26T11:22:44;20.30;72.70
11264;DHT22;5689;48.798;9.070;2024-02-26T11:25:12;21.00;71.10
11264;DHT22;5689;48.798;9.070;2024-02-26T11:27:46;19.80;68.50
11264;DHT22;5689;48.798;9.070;2024-02-26T11:30:17;17.50;75.10
11264;DHT22;5689;48.798;9.070;2024-02-26T11:32:46;17.10;74.30
11264;DHT22;5689;48.798;9.070;2024-02-26T11:35:15;17.10;74.70
11264;DHT22;5689;48.798;9.070;2024-02-26T11:37:53;17.30;73.70
11264;DHT22;5689;48.798;9.070;2024-02-26T11:40:24;16.50;74.40
11264;DHT22;5689;48.798;9.070;2024-02-26T11:42:53;16.00;75.30
11264;DHT22;5689;48.798;9.070;2024-02-26T11:45:50;15.90;78.30
11264;DHT22;5689;48.798;9.070;2024-02-26T11:48:24;20.10;72.70
11264;DHT22;5689;48.798;9.070;2024-02-26T11:50:53;21.90;66.70
11264;DHT22;5689;48.798;9.070;2024-02-26T11:53:25;22.10;65.00
11264;DHT22;5689;48.798;9.070;2024-02-26T11:56:21;22.10;62.80
11264;DHT22;5689;48.798;9.070;2024-02-26T11:58:59;21.10;63.70
11264;DHT22;5689;48.798;9.070;2024-02-26T12:01:41;19.60;65.30
11264;DHT22;5689;48.798;9.070;2024-02-26T12:04:16;19.10;67.20
11264;DHT22;5689;48.798;9.070;2024-02-26T12:06:46;19.60;65.20
11264;DHT22;5689;48.798;9.070;2024-02-26T12:09:38;18.40;65.70
11264;DHT22;5689;48.798;9.070;2024-02-26T12:12:08;18.10;66.30
11264;DHT22;5689;48.798;9.070;2024-02-26T12:14:38;17.30;68.10
11264;DHT22;5689;48.798;9.070;2024-02-26T12:17:07;16.30;70.00
11264;DHT22;5689;48.798;9.070;2024-02-26T12:19:36;15.20;71.40
11264;DHT22;5689;48.798;9.070;2024-02-26T12:22:07;14.60;74.00
11264;DHT22;5689;48.798;9.070;2024-02-26T12:24:37;13.70;75.70
11264;DHT22;5689;48.798;9.070;2024-02-26T12:27:05;13.90;76.80
11264;DHT22;5689;48.798;9.070;2024-02-26T12:29:34;14.20;76.30
11264;DHT22;5689;48.798;9.070;2024-02-26T12:32:03;14.00;76.10
11264;DHT22;5689;48.798;9.070;2024-02-26T12:34:33;14.20;76.50
11264;DHT22;5689;48.798;9.070;2024-02-26T12:37:02;14.20;76.00
11264;DHT22;5689;48.798;9.070;2024-02-26T12:39:31;14.60;76.20
11264;DHT22;5689;48.798;9.070;2024-02-26T12:42:01;14.30;76.30
11264;DHT22;5689;48.798;9.070;2024-02-26T12:44:31;15.10;76.30
11264;DHT22;5689;48.798;9.070;2024-02-26T12:47:03;14.80;75.40
11264;DHT22;5689;48.798;9.070;2024-02-26T12:49:31;15.60;75.30
11264;DHT22;5689;48.798;9.070;2024-02-26T12:52:00;14.50;75.10
11264;DHT22;5689;48.798;9.070;2024-02-26T12:54:29;14.70;75.00
11264;DHT22;5689;48.798;9.070;2024-02-26T12:57:02;14.80;76.90
11264;DHT22;5689;48.798;9.070;2024-02-26T12:59:31;15.20;76.60
11264;DHT22;5689;48.798;9.070;2024-02-26T13:02:00;14.80;77.60
11264;DHT22;5689;48.798;9.070;2024-02-26T13:04:30;15.00;76.80
11264;DHT22;5689;48.798;9.070;2024-02-26T13:06:58;15.50;76.20
11264;DHT22;5689;48.798;9.070;2024-02-26T13:09:33;15.50;75.90
11264;DHT22;5689;48.798;9.070;2024-02-26T13:12:06;17.00;74.40
11264;DHT22;5689;48.798;9.070;2024-02-26T13:14:34;17.50;72.90
11264;DHT22;5689;48.798;9.070;2024-02-26T13:17:03;18.10;71.60
11264;DHT22;5689;48.798;9.070;2024-02-26T13:19:32;19.00;71.40
11264;DHT22;5689;48.798;9.070;2024-02-26T13:22:04;18.30;71.70
11264;DHT22;5689;48.798;9.070;2024-02-26T13:24:33;18.20;70.50
11264;DHT22;5689;48.798;9.070;2024-02-26T13:27:01;18.40;70.50
11264;DHT22;5689;48.798;9.070;2024-02-26T13:29:33;18.10;70.50
11264;DHT22;5689;48.798;9.070;2024-02-26T13:32:01;18.20;70.00
11264;DHT22;5689;48.798;9.070;2024-02-26T13:34:31;18.00;70.30
11264;DHT22;5689;48.798;9.070;2024-02-26T13:37:01;18.10;71.10
11264;DHT22;5689;48.798;9.070;2024-02-26T13:39:30;17.30;71.80
11264;DHT22;5689;48.798;9.070;2024-02-26T13:41:58;18.80;70.30
11264;DHT22;5689;48.798;9.070;2024-02-26T13:44:26;20.10;68.30
11264;DHT22;5689;48.798;9.070;2024-02-26T13:46:56;20.70;67.50
11264;DHT22;5689;48.798;9.070;2024-02-26T13:49:24;19.40;64.70
11264;DHT22;5689;48.798;9.070;2024-02-26T13:51:53;16.00;72.50
11264;DHT22;5689;48.798;9.070;2024-02-26T13:54:21;15.40;74.20
11264;DHT22;5689;48.798;9.070;2024-02-26T13:56:49;14.70;77.50
11264;DHT22;5689;48.798;9.070;2024-02-26T13:59:19;16.10;75.80
11264;DHT22;5689;48.798;9.070;2024-02-26T14:01:47;17.00;73.20
11264;DHT22;5689;48.798;9.070;2024-02-26T14:04:17;16.70;72.20
11264;DHT22;5689;48.798;9.070;2024-02-26T14:06:45;17.70;72.30
11264;DHT22;5689;48.798;9.070;2024-02-26T14:09:13;19.20;69.50
11264;DHT22;5689;48.798;9.070;2024-02-26T14:11:45;20.20;67.90
11264;DHT22;5689;48.798;9.070;2024-02-26T14:14:14;17.40;70.60
11264;DHT22;5689;48.798;9.070;2024-02-26T14:16:42;17.20;70.80
11264;DHT22;5689;48.798;9.070;2024-02-26T14:19:10;16.30;72.70
11264;DHT22;5689;48.798;9.070;2024-02-26T14:21:42;17.20;73.20
11264;DHT22;5689;48.798;9.070;2024-02-26T14:24:11;19.30;70.70
11264;DHT22;5689;48.798;9.070;2024-02-26T14:26:40;19.90;67.40
11264;DHT22;5689;48.798;9.070;2024-02-26T14:29:08;19.10;66.20
11264;DHT22;5689;48.798;9.070;2024-02-26T14:31:36;19.40;65.60
11264;DHT22;5689;48.798;9.070;2024-02-26T14:34:05;19.20;68.70
11264;DHT22;5689;48.798;9.070;2024-02-26T14:36:34;20.50;66.60
11264;DHT22;5689;48.798;9.070;2024-02-26T14:39:03;22.90;64.00
11264;DHT22;5689;48.798;9.070;2024-02-26T14:41:32;21.20;64.70
11264;DHT22;5689;48.798;9.070;2024-02-26T14:44:00;21.30;64.70
11264;DHT22;5689;48.798;9.070;2024-02-26T14:46:28;21.40;63.20
11264;DHT22;5689;48.798;9.070;2024-02-26T14:48:56;19.30;66.20
11264;DHT22;5689;48.798;9.070;2024-02-26T14:51:24;16.20;70.40
11264;DHT22;5689;48.798;9.070;2024-02-26T14:53:53;15.80;73.00
11264;DHT22;5689;48.798;9.070;2024-02-26T14:56:23;16.00;73.10
11264;DHT22;5689;48.798;9.070;2024-02-26T14:58:51;16.10;74.00
11264;DHT22;5689;48.798;9.070;2024-02-26T15:01:19;16.90;72.70
11264;DHT22;5689;48.798;9.070;2024-02-26T15:03:47;16.40;73.20
11264;DHT22;5689;48.798;9.070;2024-02-26T15:06:15;15.70;73.40
11264;DHT22;5689;48.798;9.070;2024-02-26T15:08:44;15.50;75.50
11264;DHT22;5689;48.798;9.070;2024-02-26T15:11:13;15.20;76.30
11264;DHT22;5689;48.798;9.070;2024-02-26T15:13:42;14.40;77.50
11264;DHT22;5689;48.798;9.070;2024-02-26T15:16:17;14.10;79.00
11264;DHT22;5689;48.798;9.070;2024-02-26T15:18:45;14.40;80.00
11264;DHT22;5689;48.798;9.070;2024-02-26T15:21:14;14.50;78.20
11264;DHT22;5689;48.798;9.070;2024-02-26T15:23:43;14.30;79.50
11264;DHT22;5689;48.798;9.070;2024-02-26T15:26:17;14.40;79.40
11264;DHT22;5689;48.798;9.070;2024-02-26T15:28:47;14.40;79.50
11264;DHT22;5689;48.798;9.070;2024-02-26T15:31:16;14.40;78.70
11264;DHT22;5689;48.798;9.070;2024-02-26T15:33:44;13.70;80.40
11264;DHT22;5689;48.798;9.070;2024-02-26T15:36:12;13.80;82.10
11264;DHT22;5689;48.798;9.070;2024-02-26T15:38:41;14.10;81.40
11264;DHT22;5689;48.798;9.070;2024-02-26T15:41:11;14.20;80.90
11264;DHT22;5689;48.798;9.070;2024-02-26T15:43:40;14.10;81.10
11264;DHT22;5689;48.798;9.070;2024-02-26T15:46:10;14.30;81.10
11264;DHT22;5689;48.798;9.070;2024-02-26T15:48:38;14.30;81.10
11264;DHT22;5689;48.798;9.070;2024-02-26T15:51:06;14.20;81.00
11264;DHT22;5689;48.798;9.070;2024-02-26T15:53:34;14.10;81.40
11264;DHT22;5689;48.798;9.070;2024-02-26T15:56:01;14.20;82.10
11264;DHT22;5689;48.798;9.070;2024-02-26T15:58:30;14.00;82.70
11264;DHT22;5689;48.798;9.070;2024-02-26T16:00:58;14.00;82.90
11264;DHT22;5689;48.798;9.070;2024-02-26T16:03:31;14.20;83.50
11264;DHT22;5689;48.798;9.070;2024-02-26T16:06:04;14.20;83.50
11264;DHT22;5689;48.798;9.070;2024-02-26T16:08:32;13.80;83.70